sensor_id;sensor_type;location;lat;lon;timestamp;pressure;altitude;pressure_sealevel;temperature;humidity
60465;BME280;46314;52.392;9.758;2022-07-06T00:00:42;101548.25;;;19.22;47.31
60465;BME280;46314;52.392;9.758;2022-07-06T00:03:08;101540.72;;;19.44;46.61
60465;BME280;46314;52.392;9.758;2022-07-06T00:05:35;101537.34;;;19.51;45.86
60465;BME280;46314;52.392;9.758;2022-07-06T00:08:01;101538.38;;;19.16;46.78
60465;BME280;46314;52.392;9.758;2022-07-06T00:10:28;101535.09;;;19.65;45.88
60465;BME280;46314;52.392;9.758;2022-07-06T00:12:54;101532.00;;;19.88;44.87
60465;BME280;46314;52.392;9.758;2022-07-06T00:15:20;101529.53;;;19.56;45.11
60465;BME280;46314;52.392;9.758;2022-07-06T00:17:47;101538.66;;;19.53;45.49
60465;BME280;46314;52.392;9.758;2022-07-06T00:20:13;101537.06;;;19.43;45.51
60465;BME280;46314;52.392;9.758;2022-07-06T00:22:39;101539.47;;;19.54;45.58
60465;BME280;46314;52.392;9.758;2022-07-06T00:25:06;101532.41;;;19.98;44.42
60465;BME280;46314;52.392;9.758;2022-07-06T00:27:32;101540.31;;;19.54;45.53
60465;BME280;46314;52.392;9.758;2022-07-06T00:29:59;101532.78;;;19.67;45.55
60465;BME280;46314;52.392;9.758;2022-07-06T00:32:25;101531.28;;;19.10;46.40
60465;BME280;46314;52.392;9.758;2022-07-06T00:34:51;101532.19;;;18.93;46.74
60465;BME280;46314;52.392;9.758;2022-07-06T00:37:21;101533.19;;;18.80;46.80
60465;BME280;46314;52.392;9.758;2022-07-06T00:39:47;101530.28;;;18.59;47.67
60465;BME280;46314;52.392;9.758;2022-07-06T00:42:13;101529.31;;;19.10;46.54
60465;BME280;46314;52.392;9.758;2022-07-06T00:44:40;101521.78;;;19.53;45.54
60465;BME280;46314;52.392;9.758;2022-07-06T00:47:06;101530.41;;;19.48;46.12
60465;BME280;46314;52.392;9.758;2022-07-06T00:49:33;101522.75;;;19.27;46.46
60465;BME280;46314;52.392;9.758;2022-07-06T00:51:59;101537.69;;;19.49;46.12
60465;BME280;46314;52.392;9.758;2022-07-06T00:54:30;101543.69;;;19.68;45.90
60465;BME280;46314;52.392;9.758;2022-07-06T00:56:57;101539.81;;;19.52;46.42
60465;BME280;46314;52.392;9.758;2022-07-06T00:59:24;101542.66;;;19.73;46.05
60465;BME280;46314;52.392;9.758;2022-07-06T01:01:50;101549.53;;;19.63;46.32
60465;BME280;46314;52.392;9.758;2022-07-06T01:04:17;101536.16;;;19.30;47.00
60465;BME280;46314;52.392;9.758;2022-07-06T01:06:45;101541.19;;;19.46;47.08
60465;BME280;46314;52.392;9.758;2022-07-06T01:09:11;101539.91;;;19.64;46.52
60465;BME280;46314;52.392;9.758;2022-07-06T01:11:38;101535.22;;;19.47;47.39
60465;BME280;46314;52.392;9.758;2022-07-06T01:14:05;101533.31;;;19.60;47.07
60465;BME280;46314;52.392;9.758;2022-07-06T01:16:31;101531.47;;;19.35;47.67
60465;BME280;46314;52.392;9.758;2022-07-06T01:18:58;101525.81;;;19.14;47.91
60465;BME280;46314;52.392;9.758;2022-07-06T01:21:24;101527.59;;;19.48;47.53
60465;BME280;46314;52.392;9.758;2022-07-06T01:23:51;101526.97;;;19.42;47.45
60465;BME280;46314;52.392;9.758;2022-07-06T01:26:19;101523.25;;;19.51;46.76
60465;BME280;46314;52.392;9.758;2022-07-06T01:28:46;101531.63;;;19.38;47.51
60465;BME280;46314;52.392;9.758;2022-07-06T01:31:15;101538.56;;;19.41;47.51
60465;BME280;46314;52.392;9.758;2022-07-06T01:33:43;101533.56;;;19.46;47.52
60465;BME280;46314;52.392;9.758;2022-07-06T01:36:10;101531.78;;;19.42;47.60
60465;BME280;46314;52.392;9.758;2022-07-06T01:38:55;101536.59;;;19.62;46.51
60465;BME280;46314;52.392;9.758;2022-07-06T01:41:22;101534.34;;;19.26;47.81
60465;BME280;46314;52.392;9.758;2022-07-06T01:43:49;101540.84;;;19.18;47.89
60465;BME280;46314;52.392;9.758;2022-07-06T01:46:16;101535.28;;;19.39;47.43
60465;BME280;46314;52.392;9.758;2022-07-06T01:48:42;101535.78;;;19.62;47.06
60465;BME280;46314;52.392;9.758;2022-07-06T01:51:09;101527.28;;;19.20;48.01
60465;BME280;46314;52.392;9.758;2022-07-06T01:53:35;101530.00;;;19.37;47.91
60465;BME280;46314;52.392;9.758;2022-07-06T01:56:02;101529.03;;;19.33;47.62
60465;BME280;46314;52.392;9.758;2022-07-06T01:58:28;101529.50;;;19.35;47.97
60465;BME280;46314;52.392;9.758;2022-07-06T02:00:54;101531.47;;;19.35;47.92
60465;BME280;46314;52.392;9.758;2022-07-06T02:03:21;101523.72;;;19.02;48.72
60465;BME280;46314;52.392;9.758;2022-07-06T02:05:48;101525.03;;;19.34;47.89
60465;BME280;46314;52.392;9.758;2022-07-06T02:08:14;101528.31;;;19.06;48.62
60465;BME280;46314;52.392;9.758;2022-07-06T02:10:40;101526.72;;;18.97;48.79
60465;BME280;46314;52.392;9.758;2022-07-06T02:13:07;101522.31;;;18.69;49.24
60465;BME280;46314;52.392;9.758;2022-07-06T02:15:33;101515.19;;;18.81;49.37
60465;BME280;46314;52.392;9.758;2022-07-06T02:17:59;101511.78;;;19.05;48.76
60465;BME280;46314;52.392;9.758;2022-07-06T02:20:26;101524.47;;;18.72;49.76
60465;BME280;46314;52.392;9.758;2022-07-06T02:22:52;101522.69;;;19.06;48.91
60465;BME280;46314;52.392;9.758;2022-07-06T02:25:19;101536.16;;;18.92;49.60
60465;BME280;46314;52.392;9.758;2022-07-06T02:27:45;101542.56;;;18.54;50.17
60465;BME280;46314;52.392;9.758;2022-07-06T02:30:11;101530.66;;;19.04;49.21
60465;BME280;46314;52.392;9.758;2022-07-06T02:32:39;101537.81;;;18.11;51.24
60465;BME280;46314;52.392;9.758;2022-07-06T02:35:05;101540.28;;;18.12;51.55
60465;BME280;46314;52.392;9.758;2022-07-06T02:37:32;101531.19;;;18.33;50.82
60465;BME280;46314;52.392;9.758;2022-07-06T02:39:58;101528.69;;;18.40;51.15
60465;BME280;46314;52.392;9.758;2022-07-06T02:42:24;101534.88;;;18.81;50.05
60465;BME280;46314;52.392;9.758;2022-07-06T02:44:54;101537.66;;;18.16;51.43
60465;BME280;46314;52.392;9.758;2022-07-06T02:47:21;101533.84;;;18.38;50.71
60465;BME280;46314;52.392;9.758;2022-07-06T02:49:47;101534.09;;;18.71;50.35
60465;BME280;46314;52.392;9.758;2022-07-06T02:52:14;101538.50;;;18.90;49.68
60465;BME280;46314;52.392;9.758;2022-07-06T02:54:40;101535.59;;;19.07;49.23
60465;BME280;46314;52.392;9.758;2022-07-06T02:57:06;101538.34;;;18.86;49.70
60465;BME280;46314;52.392;9.758;2022-07-06T02:59:33;101540.91;;;19.09;49.16
60465;BME280;46314;52.392;9.758;2022-07-06T03:01:59;101537.53;;;18.86;49.99
60465;BME280;46314;52.392;9.758;2022-07-06T03:04:25;101540.75;;;19.05;49.33
60465;BME280;46314;52.392;9.758;2022-07-06T03:06:52;101536.16;;;18.92;49.62
60465;BME280;46314;52.392;9.758;2022-07-06T03:09:18;101539.84;;;18.84;49.94
60465;BME280;46314;52.392;9.758;2022-07-06T03:11:44;101541.00;;;18.83;49.68
60465;BME280;46314;52.392;9.758;2022-07-06T03:14:11;101539.50;;;18.85;50.22
60465;BME280;46314;52.392;9.758;2022-07-06T03:16:38;101530.94;;;19.11;49.12
60465;BME280;46314;52.392;9.758;2022-07-06T03:19:04;101532.50;;;19.00;49.34
60465;BME280;46314;52.392;9.758;2022-07-06T03:21:31;101539.13;;;18.96;49.96
60465;BME280;46314;52.392;9.758;2022-07-06T03:23:57;101539.28;;;18.99;49.69
60465;BME280;46314;52.392;9.758;2022-07-06T03:26:24;101538.22;;;18.65;50.16
60465;BME280;46314;52.392;9.758;2022-07-06T03:28:50;101541.28;;;18.99;49.97
60465;BME280;46314;52.392;9.758;2022-07-06T03:31:16;101545.25;;;18.80;50.46
60465;BME280;46314;52.392;9.758;2022-07-06T03:33:43;101541.44;;;18.94;50.15
60465;BME280;46314;52.392;9.758;2022-07-06T03:36:09;101544.09;;;18.99;49.69
60465;BME280;46314;52.392;9.758;2022-07-06T03:38:36;101537.97;;;18.97;49.58
60465;BME280;46314;52.392;9.758;2022-07-06T03:41:02;101548.91;;;18.81;50.57
60465;BME280;46314;52.392;9.758;2022-07-06T03:43:29;101544.38;;;19.06;49.62
60465;BME280;46314;52.392;9.758;2022-07-06T03:45:55;101540.94;;;19.00;50.21
60465;BME280;46314;52.392;9.758;2022-07-06T03:48:22;101542.16;;;18.82;50.31
60465;BME280;46314;52.392;9.758;2022-07-06T03:50:49;101543.34;;;18.63;51.03
60465;BME280;46314;52.392;9.758;2022-07-06T03:53:15;101541.16;;;18.78;50.78
60465;BME280;46314;52.392;9.758;2022-07-06T03:55:41;101535.38;;;18.83;50.63
60465;BME280;46314;52.392;9.758;2022-07-06T03:58:08;101538.81;;;18.88;50.55
60465;BME280;46314;52.392;9.758;2022-07-06T04:00:34;101543.47;;;19.23;49.75
60465;BME280;46314;52.392;9.758;2022-07-06T04:03:01;101548.44;;;18.79;50.56
60465;BME280;46314;52.392;9.758;2022-07-06T04:05:27;101551.22;;;18.96;50.61
60465;BME280;46314;52.392;9.758;2022-07-06T04:07:53;101555.16;;;19.04;50.24
60465;BME280;46314;52.392;9.758;2022-07-06T04:10:20;101563.41;;;19.09;50.01
60465;BME280;46314;52.392;9.758;2022-07-06T04:12:46;101559.53;;;19.14;49.74
60465;BME280;46314;52.392;9.758;2022-07-06T04:15:12;101558.34;;;18.85;50.45
60465;BME280;46314;52.392;9.758;2022-07-06T04:17:39;101564.34;;;18.57;51.51
60465;BME280;46314;52.392;9.758;2022-07-06T04:20:06;101554.06;;;18.79;51.45
60465;BME280;46314;52.392;9.758;2022-07-06T04:22:32;101562.25;;;19.01;50.34
60465;BME280;46314;52.392;9.758;2022-07-06T04:24:58;101563.97;;;18.85;50.90
60465;BME280;46314;52.392;9.758;2022-07-06T04:27:25;101566.16;;;18.70;51.97
60465;BME280;46314;52.392;9.758;2022-07-06T04:29:52;101564.16;;;18.71;51.38
60465;BME280;46314;52.392;9.758;2022-07-06T04:32:19;101566.84;;;19.44;49.81
60465;BME280;46314;52.392;9.758;2022-07-06T04:34:50;101561.22;;;19.44;49.47
60465;BME280;46314;52.392;9.758;2022-07-06T04:37:17;101565.69;;;18.51;52.29
60465;BME280;46314;52.392;9.758;2022-07-06T04:39:43;101565.97;;;18.84;51.60
60465;BME280;46314;52.392;9.758;2022-07-06T04:42:09;101566.94;;;19.27;50.47
60465;BME280;46314;52.392;9.758;2022-07-06T04:44:36;101566.66;;;19.20;50.72
60465;BME280;46314;52.392;9.758;2022-07-06T04:47:02;101564.69;;;19.71;49.03
60465;BME280;46314;52.392;9.758;2022-07-06T04:49:29;101568.88;;;19.65;49.20
60465;BME280;46314;52.392;9.758;2022-07-06T04:51:55;101571.81;;;19.98;48.61
60465;BME280;46314;52.392;9.758;2022-07-06T04:54:21;101571.56;;;19.61;49.52
60465;BME280;46314;52.392;9.758;2022-07-06T04:56:48;101562.97;;;19.88;48.90
60465;BME280;46314;52.392;9.758;2022-07-06T04:59:14;101563.66;;;19.55;49.83
60465;BME280;46314;52.392;9.758;2022-07-06T05:01:41;101557.94;;;19.93;48.45
60465;BME280;46314;52.392;9.758;2022-07-06T05:04:08;101558.06;;;20.18;48.16
60465;BME280;46314;52.392;9.758;2022-07-06T05:06:34;101567.13;;;20.23;47.80
60465;BME280;46314;52.392;9.758;2022-07-06T05:09:00;101560.75;;;20.14;48.15
60465;BME280;46314;52.392;9.758;2022-07-06T05:11:27;101553.66;;;20.08;48.31
60465;BME280;46314;52.392;9.758;2022-07-06T05:13:54;101556.22;;;20.01;48.62
60465;BME280;46314;52.392;9.758;2022-07-06T05:16:21;101556.56;;;19.48;49.72
60465;BME280;46314;52.392;9.758;2022-07-06T05:18:47;101556.16;;;20.43;47.47
60465;BME280;46314;52.392;9.758;2022-07-06T05:21:14;101565.44;;;20.43;47.69
60465;BME280;46314;52.392;9.758;2022-07-06T05:23:40;101566.06;;;20.49;47.15
60465;BME280;46314;52.392;9.758;2022-07-06T05:26:06;101564.22;;;19.69;49.30
60465;BME280;46314;52.392;9.758;2022-07-06T05:28:33;101567.53;;;19.03;51.23
60465;BME280;46314;52.392;9.758;2022-07-06T05:31:02;101570.72;;;20.45;47.81
60465;BME280;46314;52.392;9.758;2022-07-06T05:33:28;101569.41;;;19.58;49.97
60465;BME280;46314;52.392;9.758;2022-07-06T05:35:55;101573.19;;;20.13;48.95
60465;BME280;46314;52.392;9.758;2022-07-06T05:38:21;101573.44;;;20.20;48.29
60465;BME280;46314;52.392;9.758;2022-07-06T05:40:48;101569.53;;;20.13;48.80
60465;BME280;46314;52.392;9.758;2022-07-06T05:43:14;101573.75;;;20.40;47.57
60465;BME280;46314;52.392;9.758;2022-07-06T05:45:41;101575.06;;;20.42;47.44
60465;BME280;46314;52.392;9.758;2022-07-06T05:48:07;101574.50;;;20.49;47.34
60465;BME280;46314;52.392;9.758;2022-07-06T05:50:33;101578.28;;;19.99;49.61
60465;BME280;46314;52.392;9.758;2022-07-06T05:53:02;101583.34;;;20.93;47.15
60465;BME280;46314;52.392;9.758;2022-07-06T05:55:42;101578.41;;;21.03;46.42
60465;BME280;46314;52.392;9.758;2022-07-06T05:58:08;101580.75;;;20.88;46.84
60465;BME280;46314;52.392;9.758;2022-07-06T06:00:35;101579.44;;;20.52;47.36
60465;BME280;46314;52.392;9.758;2022-07-06T06:03:01;101578.63;;;20.85;46.41
60465;BME280;46314;52.392;9.758;2022-07-06T06:05:27;101577.94;;;20.55;47.04
60465;BME280;46314;52.392;9.758;2022-07-06T06:07:54;101583.88;;;20.41;47.76
60465;BME280;46314;52.392;9.758;2022-07-06T06:10:20;101578.09;;;21.16;46.58
60465;BME280;46314;52.392;9.758;2022-07-06T06:12:47;101576.66;;;21.10;46.01
60465;BME280;46314;52.392;9.758;2022-07-06T06:15:13;101582.84;;;20.91;46.67
60465;BME280;46314;52.392;9.758;2022-07-06T06:17:40;101578.31;;;20.99;46.00
60465;BME280;46314;52.392;9.758;2022-07-06T06:20:10;101579.78;;;20.84;46.66
60465;BME280;46314;52.392;9.758;2022-07-06T06:22:48;101580.44;;;19.72;48.74
60465;BME280;46314;52.392;9.758;2022-07-06T06:25:38;101590.56;;;20.70;46.76
60465;BME280;46314;52.392;9.758;2022-07-06T06:28:03;101585.69;;;20.91;46.40
60465;BME280;46314;52.392;9.758;2022-07-06T06:30:30;101591.78;;;20.81;46.68
60465;BME280;46314;52.392;9.758;2022-07-06T06:33:19;101593.16;;;20.75;46.16
60465;BME280;46314;52.392;9.758;2022-07-06T06:35:47;101587.81;;;20.94;45.52
60465;BME280;46314;52.392;9.758;2022-07-06T06:38:15;101595.25;;;20.66;46.11
60465;BME280;46314;52.392;9.758;2022-07-06T06:40:42;101591.69;;;20.90;45.74
60465;BME280;46314;52.392;9.758;2022-07-06T06:43:08;101600.03;;;20.86;45.80
60465;BME280;46314;52.392;9.758;2022-07-06T06:45:35;101593.22;;;20.99;45.57
60465;BME280;46314;52.392;9.758;2022-07-06T06:48:01;101599.63;;;20.54;46.40
60465;BME280;46314;52.392;9.758;2022-07-06T06:50:28;101596.75;;;20.63;45.93
60465;BME280;46314;52.392;9.758;2022-07-06T06:52:55;101595.41;;;20.48;46.58
60465;BME280;46314;52.392;9.758;2022-07-06T06:55:21;101608.50;;;20.86;45.75
60465;BME280;46314;52.392;9.758;2022-07-06T06:57:47;101602.94;;;20.77;45.85
60465;BME280;46314;52.392;9.758;2022-07-06T07:00:14;101604.22;;;20.80;45.49
60465;BME280;46314;52.392;9.758;2022-07-06T07:02:40;101608.66;;;20.69;45.50
60465;BME280;46314;52.392;9.758;2022-07-06T07:05:07;101610.47;;;20.10;46.70
60465;BME280;46314;52.392;9.758;2022-07-06T07:07:34;101620.00;;;20.60;46.94
60465;BME280;46314;52.392;9.758;2022-07-06T07:10:00;101616.03;;;19.98;47.54
60465;BME280;46314;52.392;9.758;2022-07-06T07:12:26;101614.34;;;20.81;45.16
60465;BME280;46314;52.392;9.758;2022-07-06T07:14:53;101619.66;;;20.95;44.65
60465;BME280;46314;52.392;9.758;2022-07-06T07:17:19;101627.28;;;20.94;44.71
60465;BME280;46314;52.392;9.758;2022-07-06T07:19:45;101625.28;;;20.83;45.29
60465;BME280;46314;52.392;9.758;2022-07-06T07:22:12;101630.81;;;20.91;44.60
60465;BME280;46314;52.392;9.758;2022-07-06T07:24:38;101629.88;;;20.99;44.63
60465;BME280;46314;52.392;9.758;2022-07-06T07:27:05;101640.19;;;21.29;44.06
60465;BME280;46314;52.392;9.758;2022-07-06T07:29:31;101634.38;;;21.01;43.50
60465;BME280;46314;52.392;9.758;2022-07-06T07:31:57;101647.78;;;21.04;43.22
60465;BME280;46314;52.392;9.758;2022-07-06T07:34:24;101633.66;;;20.37;44.03
60465;BME280;46314;52.392;9.758;2022-07-06T07:36:50;101640.78;;;20.13;44.60
60465;BME280;46314;52.392;9.758;2022-07-06T07:39:16;101640.78;;;20.13;45.17
60465;BME280;46314;52.392;9.758;2022-07-06T07:41:43;101646.81;;;20.99;43.87
60465;BME280;46314;52.392;9.758;2022-07-06T07:44:09;101648.19;;;21.27;42.98
60465;BME280;46314;52.392;9.758;2022-07-06T07:46:35;101640.41;;;21.24;42.12
60465;BME280;46314;52.392;9.758;2022-07-06T07:49:02;101639.97;;;20.88;43.90
60465;BME280;46314;52.392;9.758;2022-07-06T07:51:28;101647.84;;;21.41;42.16
60465;BME280;46314;52.392;9.758;2022-07-06T07:53:55;101648.69;;;21.66;42.06
60465;BME280;46314;52.392;9.758;2022-07-06T07:56:21;101649.94;;;21.44;42.12
60465;BME280;46314;52.392;9.758;2022-07-06T07:58:47;101637.59;;;21.36;42.75
60465;BME280;46314;52.392;9.758;2022-07-06T08:01:14;101641.38;;;21.89;41.13
60465;BME280;46314;52.392;9.758;2022-07-06T08:03:40;101641.84;;;21.54;41.19
60465;BME280;46314;52.392;9.758;2022-07-06T08:06:06;101641.28;;;21.61;40.68
60465;BME280;46314;52.392;9.758;2022-07-06T08:08:33;101634.31;;;21.96;39.95
60465;BME280;46314;52.392;9.758;2022-07-06T08:10:59;101639.78;;;22.29;39.69
60465;BME280;46314;52.392;9.758;2022-07-06T08:13:46;101636.81;;;21.85;41.35
60465;BME280;46314;52.392;9.758;2022-07-06T08:16:12;101638.59;;;22.30;39.61
60465;BME280;46314;52.392;9.758;2022-07-06T08:18:39;101640.28;;;22.06;40.67
60465;BME280;46314;52.392;9.758;2022-07-06T08:21:06;101636.25;;;22.88;38.96
60465;BME280;46314;52.392;9.758;2022-07-06T08:23:53;101644.78;;;22.76;38.67
60465;BME280;46314;52.392;9.758;2022-07-06T08:26:20;101637.00;;;21.30;39.99
60465;BME280;46314;52.392;9.758;2022-07-06T08:28:47;101636.72;;;20.44;41.34
60465;BME280;46314;52.392;9.758;2022-07-06T08:31:13;101641.03;;;21.54;40.85
60465;BME280;46314;52.392;9.758;2022-07-06T08:34:01;101636.44;;;21.99;40.15
60465;BME280;46314;52.392;9.758;2022-07-06T08:36:27;101642.53;;;22.54;39.42
60465;BME280;46314;52.392;9.758;2022-07-06T08:38:53;101640.09;;;21.87;41.00
60465;BME280;46314;52.392;9.758;2022-07-06T08:41:23;101630.50;;;22.04;39.79
60465;BME280;46314;52.392;9.758;2022-07-06T08:43:52;101627.88;;;20.12;42.40
60465;BME280;46314;52.392;9.758;2022-07-06T08:46:20;101632.66;;;21.33;40.51
60465;BME280;46314;52.392;9.758;2022-07-06T08:48:48;101634.19;;;22.04;39.83
60465;BME280;46314;52.392;9.758;2022-07-06T08:51:14;101628.78;;;21.99;40.24
60465;BME280;46314;52.392;9.758;2022-07-06T08:53:41;101632.81;;;21.61;40.23
60465;BME280;46314;52.392;9.758;2022-07-06T08:56:08;101637.25;;;21.99;39.99
60465;BME280;46314;52.392;9.758;2022-07-06T08:58:34;101632.69;;;22.63;38.20
60465;BME280;46314;52.392;9.758;2022-07-06T09:01:01;101633.59;;;22.96;37.01
60465;BME280;46314;52.392;9.758;2022-07-06T09:03:27;101630.81;;;22.67;38.27
60465;BME280;46314;52.392;9.758;2022-07-06T09:05:59;101629.50;;;22.37;38.70
60465;BME280;46314;52.392;9.758;2022-07-06T09:08:28;101620.69;;;22.26;38.91
60465;BME280;46314;52.392;9.758;2022-07-06T09:10:56;101626.34;;;23.27;37.57
60465;BME280;46314;52.392;9.758;2022-07-06T09:13:23;101625.25;;;22.43;38.64
60465;BME280;46314;52.392;9.758;2022-07-06T09:15:50;101637.22;;;23.24;37.51
60465;BME280;46314;52.392;9.758;2022-07-06T09:18:26;101622.75;;;22.98;37.15
60465;BME280;46314;52.392;9.758;2022-07-06T09:20:53;101637.25;;;22.96;37.01
60465;BME280;46314;52.392;9.758;2022-07-06T09:23:22;101638.28;;;23.36;35.79
60465;BME280;46314;52.392;9.758;2022-07-06T09:25:50;101644.25;;;23.31;35.61
60465;BME280;46314;52.392;9.758;2022-07-06T09:28:16;101641.34;;;23.27;35.78
60465;BME280;46314;52.392;9.758;2022-07-06T09:30:43;101638.66;;;23.82;34.55
60465;BME280;46314;52.392;9.758;2022-07-06T09:33:10;101638.91;;;23.93;34.97
60465;BME280;46314;52.392;9.758;2022-07-06T09:35:38;101629.06;;;22.63;37.22
60465;BME280;46314;52.392;9.758;2022-07-06T09:38:05;101631.38;;;22.45;37.91
60465;BME280;46314;52.392;9.758;2022-07-06T09:40:35;101624.66;;;22.65;37.21
60465;BME280;46314;52.392;9.758;2022-07-06T09:43:22;101636.75;;;22.78;35.64
60465;BME280;46314;52.392;9.758;2022-07-06T09:45:54;101635.56;;;23.23;34.87
60465;BME280;46314;52.392;9.758;2022-07-06T09:48:23;101633.28;;;22.69;35.94
60465;BME280;46314;52.392;9.758;2022-07-06T09:50:51;101623.28;;;22.59;35.77
60465;BME280;46314;52.392;9.758;2022-07-06T09:53:18;101629.09;;;22.10;36.31
60465;BME280;46314;52.392;9.758;2022-07-06T09:55:50;101620.00;;;22.85;35.31
60465;BME280;46314;52.392;9.758;2022-07-06T09:58:18;101623.97;;;23.29;34.04
60465;BME280;46314;52.392;9.758;2022-07-06T10:00:58;101626.88;;;23.48;34.50
60465;BME280;46314;52.392;9.758;2022-07-06T10:03:24;101623.88;;;23.25;34.54
60465;BME280;46314;52.392;9.758;2022-07-06T10:05:51;101618.50;;;22.76;35.06
60465;BME280;46314;52.392;9.758;2022-07-06T10:08:18;101627.06;;;23.55;33.95
60465;BME280;46314;52.392;9.758;2022-07-06T10:10:45;101623.91;;;24.28;32.61
60465;BME280;46314;52.392;9.758;2022-07-06T10:13:13;101619.47;;;24.50;32.31
60465;BME280;46314;52.392;9.758;2022-07-06T10:15:41;101618.50;;;24.42;31.47
60465;BME280;46314;52.392;9.758;2022-07-06T10:18:09;101621.44;;;24.26;31.19
60465;BME280;46314;52.392;9.758;2022-07-06T10:20:38;101624.72;;;23.10;32.93
60465;BME280;46314;52.392;9.758;2022-07-06T10:23:06;101626.97;;;23.84;31.91
60465;BME280;46314;52.392;9.758;2022-07-06T10:25:33;101629.41;;;23.69;32.51
60465;BME280;46314;52.392;9.758;2022-07-06T10:28:01;101634.47;;;23.44;32.98
60465;BME280;46314;52.392;9.758;2022-07-06T10:30:28;101625.78;;;23.37;32.42
60465;BME280;46314;52.392;9.758;2022-07-06T10:32:56;101625.72;;;23.17;32.81
60465;BME280;46314;52.392;9.758;2022-07-06T10:35:24;101629.41;;;22.21;34.28
60465;BME280;46314;52.392;9.758;2022-07-06T10:38:05;101629.50;;;21.71;35.44
60465;BME280;46314;52.392;9.758;2022-07-06T10:40:33;101627.84;;;21.46;35.95
60465;BME280;46314;52.392;9.758;2022-07-06T10:43:01;101626.19;;;21.32;36.06
60465;BME280;46314;52.392;9.758;2022-07-06T10:50:49;101621.03;;;22.65;33.71
60465;BME280;46314;52.392;9.758;2022-07-06T10:55:49;101622.53;;;22.06;34.56
60465;BME280;46314;52.392;9.758;2022-07-06T10:58:35;101622.19;;;21.70;34.68
60465;BME280;46314;52.392;9.758;2022-07-06T11:01:03;101625.38;;;22.91;33.31
60465;BME280;46314;52.392;9.758;2022-07-06T11:03:38;101619.31;;;23.20;32.24
60465;BME280;46314;52.392;9.758;2022-07-06T11:06:12;101618.13;;;23.05;32.87
60465;BME280;46314;52.392;9.758;2022-07-06T11:08:43;101611.31;;;23.74;31.53
60465;BME280;46314;52.392;9.758;2022-07-06T11:16:15;101604.09;;;23.60;31.43
60465;BME280;46314;52.392;9.758;2022-07-06T11:18:50;101601.69;;;23.43;32.23
60465;BME280;46314;52.392;9.758;2022-07-06T11:21:32;101606.53;;;23.27;32.69
60465;BME280;46314;52.392;9.758;2022-07-06T11:23:59;101607.81;;;23.13;32.48
60465;BME280;46314;52.392;9.758;2022-07-06T11:26:27;101605.63;;;23.22;32.28
60465;BME280;46314;52.392;9.758;2022-07-06T11:28:53;101604.06;;;23.25;32.43
60465;BME280;46314;52.392;9.758;2022-07-06T11:31:21;101600.97;;;22.70;33.33
60465;BME280;46314;52.392;9.758;2022-07-06T11:33:47;101602.22;;;22.57;33.28
60465;BME280;46314;52.392;9.758;2022-07-06T11:36:21;101603.03;;;23.01;32.81
60465;BME280;46314;52.392;9.758;2022-07-06T11:38:49;101597.50;;;22.33;34.32
60465;BME280;46314;52.392;9.758;2022-07-06T11:41:17;101602.69;;;21.65;35.19
60465;BME280;46314;52.392;9.758;2022-07-06T11:43:45;101598.78;;;22.35;35.33
60465;BME280;46314;52.392;9.758;2022-07-06T11:46:31;101600.97;;;22.70;34.07
60465;BME280;46314;52.392;9.758;2022-07-06T11:49:00;101604.53;;;22.83;33.38
60465;BME280;46314;52.392;9.758;2022-07-06T11:51:28;101605.63;;;22.34;33.59
60465;BME280;46314;52.392;9.758;2022-07-06T11:54:00;101594.38;;;22.09;33.79
60465;BME280;46314;52.392;9.758;2022-07-06T11:56:28;101600.44;;;22.24;34.03
60465;BME280;46314;52.392;9.758;2022-07-06T11:58:57;101591.91;;;22.48;34.15
60465;BME280;46314;52.392;9.758;2022-07-06T12:01:25;101595.84;;;22.60;33.32
60465;BME280;46314;52.392;9.758;2022-07-06T12:03:52;101599.66;;;22.96;32.90
60465;BME280;46314;52.392;9.758;2022-07-06T12:06:23;101600.81;;;22.95;33.33
60465;BME280;46314;52.392;9.758;2022-07-06T12:08:55;101590.81;;;21.60;35.05
60465;BME280;46314;52.392;9.758;2022-07-06T12:11:29;101595.84;;;22.31;34.54
60465;BME280;46314;52.392;9.758;2022-07-06T12:14:00;101595.63;;;22.53;34.61
60465;BME280;46314;52.392;9.758;2022-07-06T12:16:35;101600.00;;;22.94;33.66
60465;BME280;46314;52.392;9.758;2022-07-06T12:19:03;101597.59;;;22.64;34.05
60465;BME280;46314;52.392;9.758;2022-07-06T12:21:33;101600.25;;;22.73;34.43
60465;BME280;46314;52.392;9.758;2022-07-06T12:24:00;101594.50;;;22.69;34.94
60465;BME280;46314;52.392;9.758;2022-07-06T12:26:28;101588.97;;;22.45;34.55
60465;BME280;46314;52.392;9.758;2022-07-06T12:29:06;101592.69;;;22.93;34.76
60465;BME280;46314;52.392;9.758;2022-07-06T12:31:35;101579.78;;;23.75;32.89
60465;BME280;46314;52.392;9.758;2022-07-06T12:34:03;101574.00;;;23.52;33.14
60465;BME280;46314;52.392;9.758;2022-07-06T12:36:30;101577.63;;;22.73;35.42
60465;BME280;46314;52.392;9.758;2022-07-06T12:38:57;101576.97;;;23.24;34.12
60465;BME280;46314;52.392;9.758;2022-07-06T12:41:32;101571.34;;;23.43;33.96
60465;BME280;46314;52.392;9.758;2022-07-06T12:44:21;101573.28;;;23.08;34.53
60465;BME280;46314;52.392;9.758;2022-07-06T12:46:49;101575.50;;;23.66;33.11
60465;BME280;46314;52.392;9.758;2022-07-06T12:49:21;101577.75;;;23.76;32.72
60465;BME280;46314;52.392;9.758;2022-07-06T12:51:59;101566.81;;;24.10;31.29
60465;BME280;46314;52.392;9.758;2022-07-06T12:54:32;101570.38;;;24.07;31.59
60465;BME280;46314;52.392;9.758;2022-07-06T12:59:25;101569.00;;;24.79;30.19
60465;BME280;46314;52.392;9.758;2022-07-06T13:01:55;101567.13;;;24.24;30.73
60465;BME280;46314;52.392;9.758;2022-07-06T13:04:27;101556.88;;;24.19;30.86
60465;BME280;46314;52.392;9.758;2022-07-06T13:06:54;101569.50;;;23.51;31.84
60465;BME280;46314;52.392;9.758;2022-07-06T13:09:21;101569.88;;;23.02;32.70